Time;durP1;ratioP1;P1;durP2;ratioP2;P2;SDS_P1;SDS_P2;PMS_P1;PMS_P2;Temp;Humidity;BMP_temperature;BMP_pressure;BME280_temperature;BME280_humidity;BME280_pressure;Samples;Min_cycle;Max_cycle;Signal;HPM_P1;HPM_P2
2022/09/14 00:01:40;;;;;;;11.35;9.90;;;;;;;14.33;100.00;98722.84;5094553;28;20020;-79
2022/09/14 00:04:10;;;;;;;11.05;9.00;;;;;;;14.28;100.00;98725.78;5094054;28;20052;-79
2022/09/14 00:06:36;;;;;;;13.13;9.60;;;;;;;14.25;100.00;98726.03;5094341;28;20024;-79
2022/09/14 00:09:05;;;;;;;13.38;9.68;;;;;;;14.15;100.00;98723.25;5091356;28;20369;-79
2022/09/14 00:11:32;;;;;;;10.23;8.63;;;;;;;14.17;100.00;98723.16;5074633;28;20089;-79
2022/09/14 00:13:59;;;;;;;14.32;9.82;;;;;;;14.16;100.00;98735.44;5091590;28;20036;-79
2022/09/14 00:16:30;;;;;;;12.52;8.98;;;;;;;14.13;100.00;98732.19;5091767;28;20107;-79
2022/09/14 00:18:59;;;;;;;10.50;9.02;;;;;;;14.14;100.00;98733.88;5091399;28;20039;-79
2022/09/14 00:21:26;;;;;;;12.88;10.13;;;;;;;14.14;100.00;98726.00;5091545;28;20043;-79
2022/09/14 00:23:51;;;;;;;11.30;10.00;;;;;;;14.29;100.00;98739.72;5091730;28;20082;-79
2022/09/14 00:26:19;;;;;;;13.10;9.68;;;;;;;14.32;100.00;98724.59;5091039;28;20032;-79
2022/09/14 00:28:48;;;;;;;10.55;9.15;;;;;;;14.39;100.00;98728.41;5091424;28;20496;-79
2022/09/14 00:31:14;;;;;;;11.75;10.55;;;;;;;14.41;100.00;98729.16;5091078;28;20020;-79
2022/09/14 00:33:41;;;;;;;10.88;9.77;;;;;;;14.44;100.00;98735.91;5091323;28;20031;-79
2022/09/14 00:36:09;;;;;;;11.68;9.98;;;;;;;14.48;100.00;98727.72;5090995;28;20468;-79
2022/09/14 00:38:34;;;;;;;12.60;10.13;;;;;;;14.53;100.00;98716.91;5091288;28;20028;-79
2022/09/14 00:41:00;;;;;;;10.88;9.70;;;;;;;14.55;100.00;98704.53;5090871;28;20408;-79
2022/09/14 00:43:26;;;;;;;11.70;9.38;;;;;;;14.61;100.00;98716.31;5091145;28;20035;-79
2022/09/14 00:45:52;;;;;;;10.82;9.23;;;;;;;14.60;100.00;98723.34;5091537;28;20035;-79
2022/09/14 00:48:19;;;;;;;12.07;9.48;;;;;;;14.61;100.00;98716.31;5093043;28;20453;-79
2022/09/14 00:50:44;;;;;;;10.65;9.65;;;;;;;14.59;100.00;98718.22;5093461;28;20031;-79
2022/09/14 00:53:09;;;;;;;10.82;9.57;;;;;;;14.56;100.00;98721.91;5093364;28;20024;-79
2022/09/14 00:55:35;;;;;;;12.00;10.75;;;;;;;14.45;100.00;98704.38;5093257;28;20584;-79
2022/09/14 00:58:01;;;;;;;10.98;9.85;;;;;;;14.52;100.00;98712.63;5093039;28;20020;-79
2022/09/14 01:00:28;;;;;;;10.63;9.60;;;;;;;14.48;100.00;98700.66;5091986;28;20127;-79
2022/09/14 01:02:54;;;;;;;12.70;10.68;;;;;;;14.57;100.00;98718.31;5093154;28;20479;-79
2022/09/14 01:05:28;;;;;;;13.88;10.05;;;;;;;14.51;100.00;98695.22;5093106;28;20071;-79
2022/09/14 01:08:40;;;;;;;14.27;10.80;;;;;;;14.56;100.00;98707.97;5092950;28;20016;-79
2022/09/14 01:11:25;;;;;;;14.73;10.38;;;;;;;14.57;100.00;98704.41;5070249;28;20028;-79
2022/09/14 01:14:01;;;;;;;11.07;9.90;;;;;;;14.52;100.00;98698.69;5070336;28;20402;-79
2022/09/14 01:16:40;;;;;;;12.35;10.70;;;;;;;14.61;100.00;98717.13;5070141;28;20094;-79
2022/09/14 01:19:14;;;;;;;11.93;9.95;;;;;;;14.64;100.00;98710.84;5069961;28;20032;-79
2022/09/14 01:21:41;;;;;;;11.25;10.15;;;;;;;14.60;100.00;98712.03;5070090;28;20043;-79
2022/09/14 01:24:14;;;;;;;13.48;9.68;;;;;;;14.64;100.00;98722.16;5070001;28;20139;-79
2022/09/14 01:26:58;;;;;;;11.45;10.25;;;;;;;14.66;100.00;98720.25;5069981;28;20028;-79
2022/09/14 01:29:48;;;;;;;12.40;10.20;;;;;;;14.68;100.00;98723.56;5070031;28;20536;-79
2022/09/14 01:32:26;;;;;;;10.67;9.57;;;;;;;14.68;100.00;98715.72;5069755;28;20024;-79
2022/09/14 01:35:10;;;;;;;10.63;9.60;;;;;;;14.66;100.00;98708.91;5069969;28;20040;-79
2022/09/14 01:37:51;;;;;;;10.65;9.57;;;;;;;14.61;100.00;98711.88;5069997;28;20480;-79
2022/09/14 01:40:26;;;;;;;14.15;10.05;;;;;;;14.57;100.00;98699.16;5069659;28;20109;-79
2022/09/14 01:43:00;;;;;;;12.60;11.32;;;;;;;14.61;100.00;98711.88;5091798;28;20032;-79
2022/09/14 01:45:29;;;;;;;13.07;11.75;;;;;;;14.54;100.00;98700.25;5092285;28;20028;-79
2022/09/14 01:47:59;;;;;;;15.43;11.57;;;;;;;14.59;100.00;98705.13;5092600;28;20074;-79
2022/09/14 01:50:27;;;;;;;;;;;;;;;14.61;100.00;98700.56;5092950;28;20031;-78
2022/09/14 01:53:06;;;;;;;11.30;10.20;;;;;;;14.56;100.00;98684.38;5092283;28;20439;-79
2022/09/14 01:55:39;;;;;;;13.60;10.70;;;;;;;14.54;100.00;98694.13;5092570;28;20337;-79
2022/09/14 01:58:11;;;;;;;10.50;9.40;;;;;;;14.42;100.00;98683.66;5091936;28;20365;-79
2022/09/14 02:00:42;;;;;;;14.20;10.93;;;;;;;14.44;100.00;98688.75;5091628;28;20457;-79
2022/09/14 02:03:16;;;;;;;12.32;11.02;;;;;;;14.37;100.00;98675.31;5092074;28;20151;-79
2022/09/14 02:05:44;;;;;;;12.93;10.07;;;;;;;14.40;100.00;98688.16;5091971;28;20097;-79
2022/09/14 02:08:10;;;;;;;12.52;10.40;;;;;;;14.29;100.00;98677.69;5091948;28;20020;-79
2022/09/14 02:10:36;;;;;;;11.07;10.00;;;;;;;14.24;100.00;98679.81;5091990;28;20035;-79
2022/09/14 02:13:02;;;;;;;11.00;9.60;;;;;;;14.17;100.00;98671.63;5091977;28;20020;-79
2022/09/14 02:15:27;;;;;;;11.15;9.93;;;;;;;14.20;100.00;98676.63;5092151;28;20518;-79
2022/09/14 02:17:53;;;;;;;11.90;10.68;;;;;;;14.16;100.00;98682.22;5092080;28;20028;-79
2022/09/14 02:20:49;;;;;;;13.32;10.25;;;;;;;14.12;100.00;98680.78;5091791;28;20101;-79
2022/09/14 02:23:16;;;;;;;12.23;10.10;;;;;;;14.05;100.00;98679.56;5069027;28;20063;-79
2022/09/14 02:25:41;;;;;;;15.85;10.55;;;;;;;13.94;100.00;98673.34;5069209;28;20036;-79
2022/09/14 02:28:07;;;;;;;12.48;10.60;;;;;;;13.95;100.00;98669.81;5069026;28;20039;-79
2022/09/14 02:30:45;;;;;;;14.90;10.55;;;;;;;13.91;100.00;98663.13;5069295;28;20111;-79
2022/09/14 02:33:13;;;;;;;12.43;10.38;;;;;;;13.92;100.00;98670.03;5069112;28;20149;-79
2022/09/14 02:35:46;;;;;;;11.68;10.38;;;;;;;13.88;100.00;98671.22;5069222;28;20887;-79
2022/09/14 02:38:37;;;;;;;11.43;10.27;;;;;;;13.84;100.00;98682.88;5069277;28;20499;-79
2022/09/14 02:41:08;;;;;;;10.57;9.57;;;;;;;13.68;100.00;98654.41;5069042;28;20465;-79
2022/09/14 02:43:48;;;;;;;17.70;10.30;;;;;;;13.73;100.00;98667.97;5069572;28;20078;-79
2022/09/14 02:46:27;;;;;;;14.25;11.45;;;;;;;13.65;100.00;98659.88;5068893;28;20041;-79
2022/09/14 02:49:11;;;;;;;12.40;11.05;;;;;;;13.62;100.00;98664.50;5069132;28;20020;-79
2022/09/14 02:51:47;;;;;;;12.85;10.15;;;;;;;13.51;100.00;98654.81;5069095;28;20031;-79
2022/09/14 02:54:19;;;;;;;12.52;10.23;;;;;;;13.51;100.00;98672.31;5068925;28;20036;-79
2022/09/14 02:56:45;;;;;;;11.85;10.50;;;;;;;13.46;100.00;98667.41;5069072;28;20075;-79
2022/09/14 02:59:11;;;;;;;12.38;10.10;;;;;;;13.44;100.00;98669.28;5072684;28;20451;-79
2022/09/14 03:01:36;;;;;;;12.55;10.55;;;;;;;13.41;100.00;98670.38;5091685;28;20111;-79
2022/09/14 03:04:02;;;;;;;15.23;11.88;;;;;;;13.38;100.00;98669.75;5091416;28;20042;-79
2022/09/14 03:06:27;;;;;;;12.70;10.02;;;;;;;13.36;100.00;98667.28;5091453;28;20051;-79
2022/09/14 03:08:52;;;;;;;12.93;11.50;;;;;;;13.38;100.00;98673.22;5091482;28;20372;-79
2022/09/14 03:11:18;;;;;;;11.38;10.05;;;;;;;13.37;100.00;98682.00;5092112;28;20111;-79
2022/09/14 03:13:43;;;;;;;13.25;11.27;;;;;;;13.32;100.00;98665.00;5095443;28;20020;-79
2022/09/14 03:16:11;;;;;;;11.68;10.48;;;;;;;13.29;100.00;98660.00;5095169;28;20024;-79
2022/09/14 03:18:37;;;;;;;12.95;10.85;;;;;;;13.32;100.00;98672.84;5095237;28;20032;-79
2022/09/14 03:21:11;;;;;;;12.57;10.95;;;;;;;13.29;100.00;98665.22;5095177;28;20027;-79
2022/09/14 03:23:47;;;;;;;13.43;10.82;;;;;;;13.19;100.00;98654.56;5094924;28;20028;-79
2022/09/14 03:26:19;;;;;;;11.98;10.68;;;;;;;13.25;100.00;98667.22;5095008;28;20020;-79
2022/09/14 03:28:48;;;;;;;14.43;11.95;;;;;;;13.19;100.00;98652.78;5094975;28;20405;-79
2022/09/14 03:31:14;;;;;;;14.33;12.30;;;;;;;13.14;100.00;98646.22;5094809;28;20102;-79
2022/09/14 03:33:40;;;;;;;14.05;11.82;;;;;;;13.12;100.00;98648.94;5095148;28;20116;-79
2022/09/14 03:36:17;;;;;;;14.38;11.43;;;;;;;13.09;100.00;98643.94;5094585;28;20115;-79
2022/09/14 03:38:44;;;;;;;14.43;12.82;;;;;;;13.11;100.00;98651.69;5095010;28;20487;-79
2022/09/14 03:41:11;;;;;;;12.57;11.38;;;;;;;13.11;100.00;98646.44;5094642;28;20059;-79
2022/09/14 03:43:36;;;;;;;14.70;12.35;;;;;;;13.06;100.00;98636.34;5094784;28;20079;-78
2022/09/14 03:46:07;;;;;;;12.55;11.25;;;;;;;13.04;100.00;98635.59;5094607;28;20059;-79
2022/09/14 03:48:32;;;;;;;12.70;11.15;;;;;;;13.09;100.00;98643.94;5094586;28;20016;-79
2022/09/14 03:51:02;;;;;;;12.88;11.45;;;;;;;13.02;100.00;98640.13;5094878;28;20027;-79
2022/09/14 03:53:28;;;;;;;14.20;12.48;;;;;;;13.03;100.00;98646.19;5094532;28;20024;-79
2022/09/14 03:55:54;;;;;;;13.65;11.20;;;;;;;13.06;100.00;98657.25;5094325;28;20024;-79
2022/09/14 03:58:19;;;;;;;13.55;11.55;;;;;;;13.05;100.00;98652.09;5094134;28;20023;-79
2022/09/14 04:00:45;;;;;;;16.30;11.75;;;;;;;13.04;100.00;98643.44;5094136;28;20449;-79
2022/09/14 04:03:10;;;;;;;13.23;11.85;;;;;;;13.05;100.00;98641.66;5093873;28;20031;-79
2022/09/14 04:05:36;;;;;;;15.25;12.15;;;;;;;12.98;100.00;98646.50;5094143;28;20055;-79
2022/09/14 04:08:01;;;;;;;12.75;11.45;;;;;;;13.06;100.00;98654.63;5094384;28;20020;-79
2022/09/14 04:10:27;;;;;;;15.18;11.35;;;;;;;13.05;100.00;98660.78;5093766;28;20032;-79
2022/09/14 04:12:52;;;;;;;13.18;11.77;;;;;;;12.99;100.00;98648.16;5094046;28;20020;-79
2022/09/14 04:15:17;;;;;;;12.80;10.75;;;;;;;13.05;100.00;98659.94;5093786;28;20020;-79
2022/09/14 04:17:43;;;;;;;13.48;12.07;;;;;;;13.07;100.00;98656.28;5093858;28;20090;-79
2022/09/14 04:20:08;;;;;;;12.57;11.32;;;;;;;13.06;100.00;98656.38;5093907;28;20024;-79
2022/09/14 04:22:33;;;;;;;15.50;11.38;;;;;;;13.00;100.00;98644.59;5093811;28;20024;-79
2022/09/14 04:24:59;;;;;;;12.95;11.50;;;;;;;12.96;100.00;98644.00;5093432;28;20020;-79
2022/09/14 04:27:24;;;;;;;13.23;11.35;;;;;;;13.02;100.00;98653.19;5093722;28;20107;-79
2022/09/14 04:29:50;;;;;;;16.48;11.32;;;;;;;12.89;100.00;98637.56;5093822;28;20111;-79
2022/09/14 04:32:16;;;;;;;14.95;11.70;;;;;;;12.97;100.00;98660.50;5093300;28;20458;-79
2022/09/14 04:34:41;;;;;;;15.02;11.35;;;;;;;12.90;100.00;98651.47;5093927;28;20038;-79
2022/09/14 04:37:06;;;;;;;13.40;12.00;;;;;;;12.95;100.00;98658.00;5093833;28;20106;-79
2022/09/14 04:39:32;;;;;;;16.95;12.88;;;;;;;12.96;100.00;98664.91;5093774;28;20445;-79
2022/09/14 04:41:57;;;;;;;13.20;11.60;;;;;;;12.95;100.00;98665.03;5093557;28;20097;-79
2022/09/14 04:44:23;;;;;;;16.25;11.98;;;;;;;12.92;100.00;98657.38;5093373;28;20049;-79
2022/09/14 04:46:48;;;;;;;12.60;11.30;;;;;;;12.97;100.00;98666.56;5093378;28;20031;-79
2022/09/14 04:49:17;;;;;;;16.55;12.32;;;;;;;13.01;100.00;98661.94;5093265;28;20172;-79
2022/09/14 04:51:43;;;;;;;14.18;12.77;;;;;;;12.95;100.00;98657.19;5093551;28;20051;-79
2022/09/14 04:54:12;;;;;;;15.55;13.10;;;;;;;12.97;100.00;98663.13;5093479;28;20047;-79
2022/09/14 04:56:38;;;;;;;15.55;13.10;;;;;;;13.03;100.00;98667.09;5093329;28;20020;-79
2022/09/14 04:59:04;;;;;;;15.02;13.43;;;;;;;13.02;100.00;98662.78;5093186;28;20042;-79
2022/09/14 05:01:38;;;;;;;17.13;14.27;;;;;;;13.05;100.00;98652.94;5093238;28;20039;-79
2022/09/14 05:04:05;;;;;;;18.13;14.60;;;;;;;13.12;100.00;98659.41;5093065;28;20157;-79
2022/09/14 05:06:33;;;;;;;15.70;14.02;;;;;;;13.14;100.00;98664.50;5093022;28;20069;-79
2022/09/14 05:08:59;;;;;;;17.73;14.98;;;;;;;13.13;100.00;98657.63;5093251;28;20026;-79
2022/09/14 05:11:28;;;;;;;14.05;12.55;;;;;;;13.16;100.00;98666.06;5092890;28;20016;-79
2022/09/14 05:13:55;;;;;;;19.77;13.57;;;;;;;13.27;100.00;98664.47;5093010;28;20039;-79
2022/09/14 05:16:22;;;;;;;17.80;13.90;;;;;;;13.44;100.00;98670.16;5092987;28;20428;-79
2022/09/14 05:18:48;;;;;;;17.38;15.00;;;;;;;13.47;100.00;98656.84;5092995;28;20030;-79
2022/09/14 05:21:17;;;;;;;18.58;13.90;;;;;;;13.58;100.00;98663.06;5092737;28;20055;-80
2022/09/14 05:23:43;;;;;;;16.27;14.57;;;;;;;13.64;100.00;98665.22;5093100;28;20111;-79
2022/09/14 05:26:09;;;;;;;16.05;14.38;;;;;;;13.65;100.00;98654.66;5092621;28;20479;-79
2022/09/14 05:28:35;;;;;;;17.38;15.15;;;;;;;13.71;100.00;98654.16;5092703;28;20110;-80
2022/09/14 05:31:08;;;;;;;18.38;14.07;;;;;;;13.81;100.00;98663.94;5092830;28;20111;-79
2022/09/14 05:33:35;;;;;;;15.75;13.57;;;;;;;13.90;100.00;98666.69;5092519;28;20031;-79
2022/09/14 05:36:01;;;;;;;18.48;13.23;;;;;;;14.04;100.00;98670.91;5091792;28;20111;-79
2022/09/14 05:38:29;;;;;;;20.23;15.52;;;;;;;14.13;100.00;98672.81;5092355;28;20073;-79
2022/09/14 05:40:54;;;;;;;18.65;15.15;;;;;;;14.20;100.00;98654.84;5092465;28;20020;-80
2022/09/14 05:43:21;;;;;;;19.75;15.10;;;;;;;14.31;100.00;98660.06;5092463;28;20043;-79
2022/09/14 05:45:47;;;;;;;18.23;15.05;;;;;;;14.38;100.00;98658.66;5092527;28;20031;-79
2022/09/14 05:48:12;;;;;;;14.55;12.35;;;;;;;14.46;100.00;98652.81;5092548;28;20104;-80
2022/09/14 05:50:37;;;;;;;16.25;13.57;;;;;;;14.52;100.00;98654.97;5092292;28;20413;-79
2022/09/14 05:53:03;;;;;;;18.00;15.02;;;;;;;14.55;100.00;98653.91;5092464;28;20525;-80
2022/09/14 05:55:28;;;;;;;16.30;14.70;;;;;;;14.65;100.00;98657.47;5092066;28;20102;-79
2022/09/14 05:57:53;;;;;;;16.90;15.02;;;;;;;14.64;100.00;98651.38;5092820;28;20124;-79
2022/09/14 06:00:20;;;;;;;17.02;15.27;;;;;;;14.76;100.00;98659.25;5092087;28;20368;-79
2022/09/14 06:02:51;;;;;;;17.92;16.05;;;;;;;14.79;100.00;98664.22;5092347;28;20213;-79
2022/09/14 06:05:16;;;;;;;23.05;17.35;;;;;;;14.83;100.00;98669.13;5091683;28;20051;-79
2022/09/14 06:07:42;;;;;;;19.00;15.45;;;;;;;14.86;100.00;98663.59;5092206;28;20452;-79
2022/09/14 06:10:08;;;;;;;19.23;17.25;;;;;;;14.90;100.00;98665.03;5092105;28;20031;-79
2022/09/14 06:12:34;;;;;;;17.13;15.43;;;;;;;14.89;100.00;98660.75;5092048;28;20028;-79
2022/09/14 06:14:59;;;;;;;20.15;16.88;;;;;;;14.87;100.00;98661.81;5092219;28;20024;-79
2022/09/14 06:17:25;;;;;;;16.95;15.15;;;;;;;14.89;100.00;98649.44;5091987;28;20107;-79
2022/09/14 06:19:51;;;;;;;17.17;14.77;;;;;;;14.94;100.00;98649.91;5092210;28;20365;-80
2022/09/14 06:22:16;;;;;;;19.42;16.17;;;;;;;15.05;100.00;98655.13;5091945;28;20020;-79
2022/09/14 06:24:42;;;;;;;22.67;18.45;;;;;;;15.06;100.00;98643.66;5092055;28;20145;-79
2022/09/14 06:27:08;;;;;;;19.08;17.17;;;;;;;15.13;100.00;98651.88;5092065;28;20016;-79
2022/09/14 06:29:34;;;;;;;24.27;18.27;;;;;;;15.21;100.00;98647.66;5091875;28;20047;-79
2022/09/14 06:32:00;;;;;;;20.70;17.27;;;;;;;15.28;100.00;98650.59;5091994;28;20024;-80
2022/09/14 06:34:25;;;;;;;21.88;17.42;;;;;;;15.32;100.00;98646.78;5091757;28;20081;-80
2022/09/14 06:36:51;;;;;;;21.48;16.13;;;;;;;15.43;100.00;98646.75;5091880;28;20024;-80
2022/09/14 06:39:16;;;;;;;22.33;18.00;;;;;;;15.44;100.00;98645.78;5091666;28;20031;-79
2022/09/14 06:41:42;;;;;;;19.08;15.63;;;;;;;15.58;100.00;98663.00;5092253;28;20149;-80
2022/09/14 06:44:07;;;;;;;21.52;17.38;;;;;;;15.74;100.00;98662.59;5091735;28;20024;-80
2022/09/14 06:46:34;;;;;;;19.52;16.77;;;;;;;16.03;100.00;98648.81;5092814;28;20036;-80
2022/09/14 06:49:09;;;;;;;19.33;17.23;;;;;;;16.48;100.00;98651.09;5095813;28;20028;-79
2022/09/14 06:51:36;;;;;;;21.02;16.63;;;;;;;16.81;100.00;98653.41;5095786;28;20020;-80
2022/09/14 06:54:03;;;;;;;19.98;15.60;;;;;;;17.18;100.00;98650.13;5095654;28;20028;-80
2022/09/14 06:56:37;;;;;;;24.35;17.35;;;;;;;17.37;100.00;98647.50;5095395;28;20082;-79
2022/09/14 06:59:04;;;;;;;17.20;15.40;;;;;;;17.63;100.00;98652.19;5095684;28;20031;-80
2022/09/14 07:01:30;;;;;;;16.45;14.43;;;;;;;17.86;100.00;98661.47;5095379;28;20475;-79
2022/09/14 07:03:57;;;;;;;16.52;14.82;;;;;;;18.00;100.00;98662.84;5095359;28;20027;-79
2022/09/14 07:06:24;;;;;;;14.82;13.25;;;;;;;17.91;100.00;98664.53;5095192;28;20459;-80
2022/09/14 07:08:51;;;;;;;14.23;12.73;;;;;;;17.91;100.00;98661.91;5095389;28;20031;-79
2022/09/14 07:11:19;;;;;;;16.50;13.38;;;;;;;17.90;100.00;98664.66;5095504;28;20484;-80
2022/09/14 07:13:45;;;;;;;15.73;14.13;;;;;;;17.90;100.00;98659.38;5095405;28;20048;-79
2022/09/14 07:16:11;;;;;;;17.58;13.82;;;;;;;17.87;100.00;98646.53;5095362;28;20055;-79
2022/09/14 07:18:36;;;;;;;16.33;13.70;;;;;;;18.09;100.00;98664.63;5095035;28;20376;-79
2022/09/14 07:21:08;;;;;;;16.58;13.07;;;;;;;18.22;100.00;98661.66;5095072;28;20028;-79
2022/09/14 07:23:36;;;;;;;15.35;13.13;;;;;;;18.48;100.00;98650.47;5095034;28;20032;-79
2022/09/14 07:26:40;;;;;;;15.05;13.45;;;;;;;19.17;100.00;98656.06;5095080;28;20020;-80
2022/09/14 07:29:10;;;;;;;14.98;13.38;;;;;;;19.45;98.82;98656.78;5072297;28;20032;-80
2022/09/14 07:31:41;;;;;;;14.77;11.80;;;;;;;19.59;97.43;98659.88;5072154;28;20083;-80
2022/09/14 07:34:07;;;;;;;11.85;10.63;;;;;;;19.73;96.59;98647.97;5072276;28;20453;-79
2022/09/14 07:36:34;;;;;;;13.43;11.60;;;;;;;19.73;95.73;98650.63;5072157;28;20109;-80
2022/09/14 07:39:00;;;;;;;12.88;11.10;;;;;;;19.51;95.83;98647.44;5072153;28;20082;-80
2022/09/14 07:41:27;;;;;;;14.30;12.05;;;;;;;19.43;96.18;98658.75;5071946;28;20020;-80
2022/09/14 07:43:59;;;;;;;17.65;12.73;;;;;;;19.22;95.62;98663.53;5061419;28;20035;-80
2022/09/14 07:46:25;;;;;;;11.73;10.50;;;;;;;19.11;96.74;98664.56;5051709;28;20033;-80
2022/09/14 07:48:59;;;;;;;11.70;10.55;;;;;;;19.01;97.06;98666.44;5052212;28;20040;-80
2022/09/14 07:51:25;;;;;;;13.88;10.48;;;;;;;18.88;97.51;98664.16;5051659;28;20385;-80
2022/09/14 07:53:51;;;;;;;11.50;10.40;;;;;;;18.83;98.22;98670.84;5051903;28;20021;-80
2022/09/14 07:56:16;;;;;;;13.05;10.48;;;;;;;18.76;98.43;98672.44;5051804;28;20032;-80
2022/09/14 07:58:42;;;;;;;12.70;10.15;;;;;;;18.63;98.53;98660.38;5051435;28;20056;-79
2022/09/14 08:01:13;;;;;;;14.68;10.68;;;;;;;18.52;98.49;98657.09;5059705;28;20017;-80
2022/09/14 08:03:42;;;;;;;10.32;9.23;;;;;;;18.48;98.97;98656.56;5059258;28;20029;-79
2022/09/14 08:06:27;;;;;;;12.10;9.70;;;;;;;18.49;99.54;98654.75;5087829;28;20040;-79
2022/09/14 08:08:53;;;;;;;11.65;9.63;;;;;;;18.45;99.61;98649.75;5102889;28;20479;-79
2022/09/14 08:11:24;;;;;;;12.45;9.73;;;;;;;18.41;100.00;98648.41;5097070;28;20043;-79
2022/09/14 08:13:52;;;;;;;13.20;9.57;;;;;;;18.46;100.00;98658.53;5094390;28;20024;-79
2022/09/14 08:16:19;;;;;;;9.68;8.70;;;;;;;18.39;100.00;98645.09;5094091;28;20384;-80
2022/09/14 08:18:45;;;;;;;8.25;7.40;;;;;;;18.50;99.95;98649.34;5093935;28;20059;-80
2022/09/14 08:21:15;;;;;;;8.30;7.30;;;;;;;18.61;99.87;98656.22;5094001;28;20509;-80
2022/09/14 08:23:42;;;;;;;8.90;7.18;;;;;;;18.72;98.83;98655.25;5093931;28;20024;-80
2022/09/14 08:26:09;;;;;;;11.18;7.68;;;;;;;18.79;98.49;98654.47;5094097;28;20408;-80
2022/09/14 08:28:37;;;;;;;8.70;7.15;;;;;;;18.85;98.26;98656.53;5093582;28;20499;-80
2022/09/14 08:31:11;;;;;;;10.27;7.57;;;;;;;18.95;97.17;98659.09;5093559;28;20085;-79
2022/09/14 08:33:40;;;;;;;7.57;6.57;;;;;;;19.00;96.96;98656.03;5093139;28;20024;-79
2022/09/14 08:36:07;;;;;;;8.23;6.20;;;;;;;18.95;96.74;98641.47;5093646;28;20054;-80
2022/09/14 08:38:33;;;;;;;9.02;6.38;;;;;;;19.06;95.92;98648.34;5093596;28;20031;-80
2022/09/14 08:41:09;;;;;;;6.63;5.07;;;;;;;19.04;93.87;98634.47;5093671;28;20055;-80
2022/09/14 08:43:37;;;;;;;10.73;4.97;;;;;;;19.12;92.40;98649.53;5093494;28;20020;-80
2022/09/14 08:46:08;;;;;;;6.80;3.55;;;;;;;18.94;89.28;98637.16;5093522;28;20617;-80
2022/09/14 08:48:45;;;;;;;6.55;3.58;;;;;;;18.93;89.72;98640.78;5093314;28;20016;-79
2022/09/14 08:51:10;;;;;;;5.55;3.67;;;;;;;18.99;89.74;98647.28;5093568;28;20024;-80
2022/09/14 08:53:39;;;;;;;7.72;3.40;;;;;;;18.97;89.45;98638.69;5093393;28;20522;-80
2022/09/14 08:56:16;;;;;;;8.43;3.78;;;;;;;18.96;88.87;98634.38;5093472;28;20020;-80
2022/09/14 08:59:10;;;;;;;6.05;3.28;;;;;;;19.05;88.46;98649.34;5093052;28;20032;-80
2022/09/14 09:02:01;;;;;;;6.60;3.28;;;;;;;18.96;87.74;98634.38;5093040;28;20058;-80
2022/09/14 09:04:45;;;;;;;5.93;3.20;;;;;;;19.07;88.18;98647.38;5092996;28;20127;-80
2022/09/14 09:07:27;;;;;;;7.93;3.50;;;;;;;19.10;88.18;98649.72;5093089;28;20032;-80
2022/09/14 09:09:55;;;;;;;6.25;3.42;;;;;;;19.07;88.39;98643.91;5093135;28;20115;-80
2022/09/14 09:12:27;;;;;;;8.13;3.80;;;;;;;18.97;87.33;98640.50;5093120;28;20020;-80
2022/09/14 09:14:56;;;;;;;7.05;3.85;;;;;;;18.96;87.91;98647.56;5092969;28;20484;-80
2022/09/14 09:17:21;;;;;;;6.43;3.85;;;;;;;18.94;87.67;98652.19;5092969;28;20028;-79
2022/09/14 09:19:56;;;;;;;5.85;4.00;;;;;;;18.88;88.12;98652.78;5092642;28;20544;-79
2022/09/14 09:22:26;;;;;;;12.27;3.75;;;;;;;18.76;89.21;98636.31;5093065;28;20453;-79
2022/09/14 09:24:53;;;;;;;6.63;3.45;;;;;;;18.78;89.51;98644.91;5092943;28;20487;-80
2022/09/14 09:27:20;;;;;;;6.10;3.63;;;;;;;18.76;89.36;98638.13;5092778;28;20063;-80
2022/09/14 09:29:45;;;;;;;5.30;3.13;;;;;;;18.86;89.30;98642.38;5092513;28;20112;-80
2022/09/14 09:32:20;;;;;;;12.60;4.80;;;;;;;18.83;89.47;98628.63;5092647;28;20595;-80
2022/09/14 09:34:46;;;;;;;9.65;4.38;;;;;;;18.85;88.97;98630.16;5092414;28;20135;-80
2022/09/14 09:37:21;;;;;;;4.40;3.60;;;;;;;19.00;88.78;98645.47;5093005;28;20225;-79
2022/09/14 09:39:46;;;;;;;7.53;4.07;;;;;;;19.05;87.34;98628.22;5092334;28;20103;-80
2022/09/14 09:42:23;;;;;;;6.68;3.50;;;;;;;19.22;87.46;98634.47;5092518;28;20106;-80
2022/09/14 09:44:56;;;;;;;5.15;3.47;;;;;;;19.37;87.41;98640.03;5092207;28;20072;-80
2022/09/14 09:47:36;;;;;;;6.97;3.42;;;;;;;19.45;86.19;98633.00;5092520;28;20024;-80
2022/09/14 09:50:05;;;;;;;7.43;4.03;;;;;;;19.54;85.26;98635.72;5100348;27;20020;-80
2022/09/14 09:52:31;;;;;;;7.05;3.47;;;;;;;19.56;84.75;98621.41;5123578;27;20015;-80
2022/09/14 09:54:59;;;;;;;6.28;3.78;;;;;;;19.66;84.65;98630.06;5120848;27;20030;-80
2022/09/14 09:57:33;;;;;;;7.60;3.75;;;;;;;19.73;84.24;98634.75;5112528;28;20468;-80
2022/09/14 10:00:11;;;;;;;9.38;3.60;;;;;;;19.76;83.98;98635.25;5131528;27;20015;-80
2022/09/14 10:02:37;;;;;;;6.40;3.60;;;;;;;19.61;83.34;98620.97;5132909;27;20020;-80
2022/09/14 10:05:05;;;;;;;5.93;3.42;;;;;;;19.65;84.67;98625.78;5132867;27;20153;-80
2022/09/14 10:07:33;;;;;;;5.38;3.55;;;;;;;19.54;83.66;98627.81;5122496;27;20030;-80
2022/09/14 10:10:02;;;;;;;4.93;3.40;;;;;;;19.36;84.43;98631.28;5112569;28;20023;-80
2022/09/14 10:12:28;;;;;;;6.40;3.40;;;;;;;19.28;85.75;98630.41;5112810;28;20027;-80
2022/09/14 10:15:21;;;;;;;6.95;3.60;;;;;;;19.26;86.81;98633.19;5112417;28;20028;-80
2022/09/14 10:17:55;;;;;;;9.82;3.50;;;;;;;19.19;87.60;98630.31;5112247;28;20011;-79
2022/09/14 10:20:23;;;;;;;7.18;3.58;;;;;;;19.10;88.50;98627.78;5112507;28;20101;-80
2022/09/14 10:22:48;;;;;;;8.98;3.63;;;;;;;19.07;88.61;98628.88;5111701;28;20023;-80
2022/09/14 10:25:14;;;;;;;5.90;3.35;;;;;;;19.10;88.34;98618.03;5128056;28;20371;-80
2022/09/14 10:27:54;;;;;;;5.18;3.35;;;;;;;19.08;87.64;98619.16;5132652;27;20467;-80
2022/09/14 10:30:21;;;;;;;4.10;3.47;;;;;;;19.10;87.53;98622.50;5132825;27;20027;-80
2022/09/14 10:32:55;;;;;;;5.22;3.38;;;;;;;19.14;87.68;98614.13;5132448;27;20061;-79
2022/09/14 10:35:24;;;;;;;5.85;3.00;;;;;;;19.13;88.33;98607.19;5132881;27;20027;-80
2022/09/14 10:37:52;;;;;;;6.17;3.73;;;;;;;19.26;88.57;98614.72;5132732;27;20017;-80
2022/09/14 10:40:21;;;;;;;6.43;3.88;;;;;;;19.32;88.76;98613.28;5132759;27;20344;-80
2022/09/14 10:43:01;;;;;;;6.90;3.30;;;;;;;19.40;88.83;98610.69;5132502;27;20015;-80
2022/09/14 10:45:40;;;;;;;7.90;3.83;;;;;;;19.53;88.22;98619.06;5132828;27;20079;-79
2022/09/14 10:48:24;;;;;;;5.30;3.45;;;;;;;19.65;87.23;98617.03;5133039;27;20027;-80
2022/09/14 10:51:11;;;;;;;4.00;3.22;;;;;;;19.73;86.47;98616.25;5132436;27;20148;-80
2022/09/14 10:54:00;;;;;;;5.30;3.30;;;;;;;19.76;85.57;98600.91;5132247;27;20051;-79
2022/09/14 10:56:43;;;;;;;5.50;3.63;;;;;;;19.79;84.95;98600.59;5132749;27;20023;-79
2022/09/14 10:59:30;;;;;;;5.03;3.33;;;;;;;19.78;84.50;98608.69;5118455;27;20483;-79
2022/09/14 11:02:23;;;;;;;11.93;4.18;;;;;;;19.65;84.43;98614.38;5111591;28;20019;-80
2022/09/14 11:04:55;;;;;;;7.75;4.00;;;;;;;19.63;84.82;98609.25;5111641;28;20507;-80
2022/09/14 11:07:44;;;;;;;5.20;2.92;;;;;;;19.59;86.01;98594.69;5111902;28;20012;-80
2022/09/14 11:10:28;;;;;;;9.23;3.88;;;;;;;19.67;86.25;98597.38;5111890;28;20059;-80
2022/09/14 11:13:06;;;;;;;6.60;3.40;;;;;;;19.63;85.81;98595.22;5111764;28;20084;-80
2022/09/14 11:15:43;;;;;;;8.00;3.65;;;;;;;19.62;85.87;98602.31;5111988;28;20019;-80
2022/09/14 11:18:35;;;;;;;6.97;3.35;;;;;;;19.59;85.23;98602.59;5111894;28;20529;-80
2022/09/14 11:21:19;;;;;;;7.15;3.70;;;;;;;19.38;84.99;98607.38;5112051;28;20028;-80
2022/09/14 11:23:50;;;;;;;7.95;3.90;;;;;;;19.26;86.20;98600.69;5111766;28;20106;-80
2022/09/14 11:26:30;;;;;;;6.63;3.45;;;;;;;19.25;86.96;98599.84;5111741;28;20051;-79
2022/09/14 11:29:07;;;;;;;6.45;3.50;;;;;;;19.23;87.11;98595.72;5111499;28;20022;-80
2022/09/14 11:32:19;;;;;;;6.25;3.67;;;;;;;19.28;87.79;98601.34;5111842;28;20028;-79